00NY weather

Weiss Airfield
West Bloomfield, New York, United States

Public forecast

Using degrees Fahrenheit for public forecast. Weather courtesy of forecast.io.

Closest aviation weather report (METAR) to Weiss Airfield

Closest report is Greater Rochester International Airport, 15.2 nm (28.1 km) NNW. Retrieved 2019/10/23 03:54 UTC (26 minutes ago):

KROC 230354Z 00000KT 10SM OVC065 12/10 A2980 RMK AO2 SLP094 T01220100

Closest aviation forecast (TAF) to Weiss Airfield

Closest forecast is Greater Rochester International Airport, 15.2 nm (28.1 km) NNW. Retrieved 2019-10-23 00:30 UTC (4 hours ago):

TAF KROC 222328Z 2300/2324 19007KT P6SM BKN060 BKN100 FM230200 22006KT P6SM -SHRA BKN050 FM230400 25006KT P6SM BKN080 FM231400 23011G18KT P6SM BKN040 FM231700 24016G25KT P6SM BKN045 FM231900 24018G28KT P6SM BKN070